createdAt,value
2022-09-22T00:00:09.433Z,11
2022-09-22T00:01:14.181Z,11
2022-09-22T00:02:21.440Z,10.9
2022-09-22T00:03:25.686Z,10.9
2022-09-22T00:04:29.880Z,11
2022-09-22T00:05:34.136Z,11
2022-09-22T00:06:39.276Z,11
2022-09-22T00:07:43.448Z,10.9
2022-09-22T00:08:48.876Z,11
2022-09-22T00:09:53.067Z,11.1
2022-09-22T00:10:58.628Z,10.9
2022-09-22T00:12:03.481Z,11
2022-09-22T00:13:07.880Z,11
2022-09-22T00:14:12.711Z,11.1
2022-09-22T00:15:16.999Z,11
2022-09-22T00:16:21.782Z,11
2022-09-22T00:17:25.880Z,10.9
2022-09-22T00:18:30.219Z,10.8
2022-09-22T00:19:35.000Z,10.6
2022-09-22T00:20:39.288Z,10.4
2022-09-22T00:21:43.828Z,10.5
2022-09-22T00:22:48.229Z,10.7
2022-09-22T00:23:52.752Z,10.5
2022-09-22T00:24:57.128Z,10.7
2022-09-22T00:26:02.304Z,10.8
2022-09-22T00:27:12.746Z,10.6
2022-09-22T00:28:17.008Z,10.8
2022-09-22T00:29:22.048Z,10.5
2022-09-22T00:30:26.297Z,10.5
2022-09-22T00:31:30.832Z,10.5
2022-09-22T00:32:35.036Z,10.5
2022-09-22T00:33:39.309Z,10.6
2022-09-22T00:34:43.536Z,10.6
2022-09-22T00:35:48.078Z,10.4
2022-09-22T00:36:57.485Z,10.6
2022-09-22T00:38:01.760Z,10.7
2022-09-22T00:39:06.494Z,10.6
2022-09-22T00:40:10.720Z,10.5
2022-09-22T00:41:15.853Z,10.5
2022-09-22T00:42:20.222Z,10.6
2022-09-22T00:43:24.441Z,10.5
2022-09-22T00:44:28.757Z,10.7
2022-09-22T00:45:36.249Z,10.8
2022-09-22T00:46:40.653Z,10.8
2022-09-22T00:47:44.876Z,10.7
2022-09-22T00:48:49.457Z,10.7
2022-09-22T00:49:53.764Z,10.7
2022-09-22T00:51:06.332Z,10.7
2022-09-22T00:52:10.576Z,10.6
2022-09-22T00:53:14.712Z,10.7
2022-09-22T00:54:19.029Z,10.8
2022-09-22T00:55:23.520Z,10.8
2022-09-22T00:56:30.404Z,10.8
2022-09-22T00:57:43.105Z,10.7
2022-09-22T00:58:47.645Z,10.6
2022-09-22T00:59:52.208Z,10.7
2022-09-22T01:00:57.328Z,10.8
2022-09-22T01:02:02.759Z,10.8
2022-09-22T01:03:07.001Z,10.8
2022-09-22T01:04:17.256Z,10.8
2022-09-22T01:05:21.446Z,10.8
2022-09-22T01:06:25.716Z,10.9
2022-09-22T01:07:30.033Z,10.8
2022-09-22T01:08:34.289Z,10.6
2022-09-22T01:09:38.652Z,10.5
2022-09-22T01:10:43.527Z,10.6
2022-09-22T01:11:47.768Z,10.7
2022-09-22T01:14:05.732Z,10.7
2022-09-22T01:15:10.056Z,10.8
2022-09-22T01:16:17.083Z,10.7
2022-09-22T01:17:26.669Z,10.7
2022-09-22T01:18:36.004Z,10.8
2022-09-22T01:19:45.567Z,10.8
2022-09-22T01:21:00.733Z,10.8
2022-09-22T01:22:13.516Z,10.8
2022-09-22T01:23:25.649Z,10.7
2022-09-22T01:24:40.038Z,10.7
2022-09-22T01:25:52.664Z,10.7
2022-09-22T01:27:04.864Z,10.7
2022-09-22T01:29:27.773Z,10.7
2022-09-22T01:30:42.161Z,10.7
2022-09-22T01:31:51.542Z,10.7
2022-09-22T01:33:01.504Z,10.7
2022-09-22T01:34:10.772Z,10.7
2022-09-22T01:35:18.329Z,10.7
2022-09-22T01:36:27.916Z,10.6
2022-09-22T01:37:32.187Z,10.6
2022-09-22T01:38:42.365Z,10.6
2022-09-22T01:39:57.330Z,10.6
2022-09-22T01:41:02.022Z,10.4
2022-09-22T01:42:06.400Z,10.5
2022-09-22T01:43:15.751Z,10.5
2022-09-22T01:44:30.182Z,10.4
2022-09-22T01:45:44.608Z,10.5
2022-09-22T01:46:49.035Z,10.5
2022-09-22T01:47:58.836Z,10.6
2022-09-22T01:49:06.856Z,10.7
2022-09-22T01:50:11.134Z,10.7
2022-09-22T01:51:18.124Z,10.6
2022-09-22T01:52:22.953Z,10.7
2022-09-22T01:53:27.208Z,10.7
2022-09-22T01:54:32.164Z,10.7
2022-09-22T01:55:41.948Z,10.8
2022-09-22T01:56:46.341Z,10.8
2022-09-22T01:57:50.705Z,10.8
2022-09-22T01:58:56.040Z,10.8
2022-09-22T02:00:00.524Z,10.8
2022-09-22T02:01:05.114Z,10.8
2022-09-22T02:02:15.472Z,10.8
2022-09-22T02:03:28.032Z,10.9
2022-09-22T02:04:35.177Z,10.9
2022-09-22T02:05:39.532Z,10.9
2022-09-22T02:07:50.248Z,10.8
2022-09-22T02:08:54.548Z,10.8
2022-09-22T02:10:06.716Z,10.9
2022-09-22T02:11:11.616Z,10.9
2022-09-22T02:12:15.829Z,10.9
2022-09-22T02:13:20.200Z,10.9
2022-09-22T02:14:24.808Z,11
2022-09-22T02:15:29.279Z,11
2022-09-22T02:16:38.480Z,11
2022-09-22T02:17:42.832Z,11
2022-09-22T02:18:47.629Z,11
2022-09-22T02:20:55.337Z,11
2022-09-22T02:24:07.710Z,11
2022-09-22T02:25:21.852Z,11
2022-09-22T02:26:26.135Z,11
2022-09-22T02:27:30.836Z,11
2022-09-22T02:28:35.024Z,11
2022-09-22T02:29:39.516Z,11
2022-09-22T02:30:54.390Z,11
2022-09-22T02:31:48.554Z,11
2022-09-22T02:32:53.056Z,11.1
2022-09-22T02:33:58.620Z,11
2022-09-22T02:35:03.584Z,11.1
2022-09-22T02:36:08.492Z,11.1
2022-09-22T02:37:18.040Z,11.1
2022-09-22T02:38:32.405Z,10.8
2022-09-22T02:39:36.808Z,11
2022-09-22T02:40:48.941Z,11
2022-09-22T02:42:02.232Z,11.1
2022-09-22T02:43:14.221Z,11.1
2022-09-22T02:44:21.032Z,11.1
2022-09-22T02:45:30.352Z,11.1
2022-09-22T02:46:34.900Z,11.1
2022-09-22T02:47:42.136Z,11.1
2022-09-22T02:48:51.615Z,11.1
2022-09-22T02:49:56.488Z,11.1
2022-09-22T02:51:01.280Z,11.1
2022-09-22T02:52:05.724Z,11.1
2022-09-22T02:53:13.307Z,11.2
2022-09-22T02:54:17.483Z,11.2
2022-09-22T02:55:22.765Z,11.1
2022-09-22T02:56:27.040Z,11
2022-09-22T02:57:31.601Z,11.1
2022-09-22T02:58:35.812Z,11.1
2022-09-22T02:59:40.107Z,11.1
2022-09-22T03:00:44.824Z,10.9
2022-09-22T03:01:49.122Z,11
2022-09-22T03:02:53.449Z,11.1
2022-09-22T03:03:57.747Z,11.1
2022-09-22T03:05:02.328Z,11.2
2022-09-22T03:06:06.755Z,11.2
2022-09-22T03:07:11.375Z,11.2
2022-09-22T03:08:15.948Z,11.2
2022-09-22T03:09:20.157Z,11.3
2022-09-22T03:10:24.532Z,11.3
2022-09-22T03:11:28.792Z,11.3
2022-09-22T03:12:33.680Z,11.3
2022-09-22T03:13:37.880Z,11.3
2022-09-22T03:14:42.351Z,11.3
2022-09-22T03:15:46.660Z,11.3
2022-09-22T03:16:50.864Z,11.3
2022-09-22T03:17:55.180Z,11.4
2022-09-22T03:18:59.438Z,11.3
2022-09-22T03:20:03.656Z,11.3
2022-09-22T03:21:07.919Z,11.3
2022-09-22T03:22:12.279Z,11.3
2022-09-22T03:23:16.944Z,11.2
2022-09-22T03:24:21.235Z,11.3
2022-09-22T03:25:25.423Z,11.3
2022-09-22T03:26:29.660Z,11.4
2022-09-22T03:27:34.315Z,11.4
2022-09-22T03:28:38.644Z,11.1
2022-09-22T03:29:43.308Z,10.6
2022-09-22T03:30:47.985Z,10.9
2022-09-22T03:31:52.243Z,11.1
2022-09-22T03:32:56.504Z,11.2
2022-09-22T03:34:00.731Z,11.2
2022-09-22T03:35:05.036Z,11.3
2022-09-22T03:36:09.341Z,11.3
2022-09-22T03:37:13.716Z,11.4
2022-09-22T03:38:18.648Z,11.4
2022-09-22T03:39:22.929Z,11.4
2022-09-22T03:40:27.308Z,11.4
2022-09-22T03:41:31.576Z,11.4
2022-09-22T03:42:36.144Z,11.3
2022-09-22T03:43:41.071Z,11.4
2022-09-22T03:44:46.084Z,11.4
2022-09-22T03:45:50.462Z,11.3
2022-09-22T03:47:00.699Z,11.2
2022-09-22T03:48:05.200Z,11.3
2022-09-22T03:49:10.057Z,11.2
2022-09-22T03:50:14.411Z,11.3
2022-09-22T03:54:57.563Z,11.2
2022-09-22T03:59:40.644Z,10.9
2022-09-22T04:04:25.532Z,10.7
2022-09-22T04:08:55.240Z,10.6
2022-09-22T04:13:46.323Z,10.9
2022-09-22T04:19:16.023Z,10.8
2022-09-22T04:27:52.219Z,11
2022-09-22T04:28:56.743Z,11
2022-09-22T04:37:56.104Z,10.7
2022-09-22T04:39:00.366Z,10.8
2022-09-22T04:47:38.343Z,11
2022-09-22T04:48:45.479Z,11
2022-09-22T04:56:54.919Z,10.9
2022-09-22T05:01:57.887Z,10.9
2022-09-22T05:03:03.773Z,10.9
2022-09-22T05:04:10.960Z,10.9
2022-09-22T05:08:47.176Z,11.1
2022-09-22T05:12:20.632Z,11.1
2022-09-22T05:17:33.431Z,11.1
2022-09-22T05:18:37.804Z,11.1
2022-09-22T05:19:42.244Z,11.1
2022-09-22T05:20:52.148Z,11.1
2022-09-22T05:21:57.575Z,11.1
2022-09-22T05:23:02.143Z,11.1
2022-09-22T05:24:06.897Z,11.1
2022-09-22T05:25:11.344Z,11.1
2022-09-22T05:26:21.147Z,11.1
2022-09-22T05:27:30.437Z,11.1
2022-09-22T05:28:38.543Z,11.1
2022-09-22T05:29:43.215Z,11.1
2022-09-22T05:30:47.539Z,11.1
2022-09-22T05:31:57.729Z,11.1
2022-09-22T05:33:01.967Z,11
2022-09-22T05:34:06.339Z,11.1
2022-09-22T05:35:11.060Z,11.1
2022-09-22T05:36:15.307Z,11.1
2022-09-22T05:37:19.735Z,11.1
2022-09-22T05:38:24.003Z,11.1
2022-09-22T05:39:28.715Z,11.1
2022-09-22T05:40:37.345Z,11.1
2022-09-22T05:41:41.655Z,11.1
2022-09-22T05:42:50.039Z,11.2
2022-09-22T05:43:54.227Z,11.1
2022-09-22T05:44:58.542Z,11.1
2022-09-22T05:46:03.010Z,11.1
2022-09-22T05:47:07.074Z,11.1
2022-09-22T05:48:11.430Z,11
2022-09-22T05:49:20.411Z,11.2
2022-09-22T05:50:24.768Z,11.2
2022-09-22T05:51:29.056Z,11.2
2022-09-22T05:52:33.259Z,11.1
2022-09-22T05:53:37.523Z,11.1
2022-09-22T05:54:41.799Z,11.1
2022-09-22T05:55:46.299Z,11.2
2022-09-22T05:56:50.723Z,11.2
2022-09-22T05:57:54.997Z,11.2
2022-09-22T05:58:59.635Z,11.2
2022-09-22T06:00:03.955Z,11.1
2022-09-22T06:01:08.565Z,10.8
2022-09-22T06:02:25.002Z,11
2022-09-22T06:03:17.106Z,11.2
2022-09-22T06:04:21.519Z,11.3
2022-09-22T06:05:26.023Z,11.3
2022-09-22T06:06:35.523Z,11.3
2022-09-22T06:07:39.902Z,11.3
2022-09-22T06:08:48.546Z,11.3
2022-09-22T06:09:48.499Z,11.3
2022-09-22T06:10:59.038Z,11.2
2022-09-22T06:13:53.208Z,11.2
2022-09-22T06:16:51.957Z,11.2
2022-09-22T06:17:56.123Z,11.3
2022-09-22T06:19:00.377Z,11.2
2022-09-22T06:21:54.144Z,11.3
2022-09-22T06:28:04.439Z,11.1
2022-09-22T06:34:22.543Z,11.2
2022-09-22T06:36:57.728Z,11.3
2022-09-22T06:38:01.862Z,11.4
2022-09-22T06:43:24.532Z,11.2
2022-09-22T06:44:30.991Z,11.3
2022-09-22T06:47:24.530Z,11.3
2022-09-22T06:48:28.837Z,11.4
2022-09-22T06:49:32.974Z,11.4
2022-09-22T06:50:38.371Z,11.4
2022-09-22T06:51:48.864Z,11.3
2022-09-22T06:52:52.999Z,11.3
2022-09-22T06:54:00.020Z,11.4
2022-09-22T06:55:04.093Z,11.5
2022-09-22T06:56:09.036Z,11.5
2022-09-22T06:57:13.981Z,11.6
2022-09-22T06:58:24.865Z,11.5
2022-09-22T06:59:30.041Z,11.4
2022-09-22T07:00:34.127Z,11.5
2022-09-22T07:01:38.447Z,11.6
2022-09-22T07:02:44.142Z,11.6
2022-09-22T07:03:58.200Z,11.6
2022-09-22T07:05:12.477Z,11.7
2022-09-22T07:06:27.909Z,11.7
2022-09-22T07:08:52.132Z,11.3
2022-09-22T07:09:56.263Z,11.3
2022-09-22T07:11:00.327Z,11.5
2022-09-22T07:12:09.783Z,11.4
2022-09-22T07:13:13.834Z,11.5
2022-09-22T07:14:21.414Z,11.6
2022-09-22T07:15:25.575Z,11.6
2022-09-22T07:24:06.953Z,11.6
2022-09-22T07:28:01.847Z,11.8
2022-09-22T07:29:10.934Z,11.6
2022-09-22T07:30:15.183Z,11.5
2022-09-22T07:31:19.435Z,11.7
2022-09-22T07:32:23.682Z,11.8
2022-09-22T07:33:28.091Z,11.8
2022-09-22T07:34:37.634Z,11.9
2022-09-22T07:35:43.462Z,11.8
2022-09-22T07:36:48.155Z,11.9
2022-09-22T07:37:52.295Z,11.9
2022-09-22T07:39:00.228Z,12
2022-09-22T07:40:04.471Z,12.1
2022-09-22T07:42:58.294Z,12.3
2022-09-22T07:44:05.215Z,12.3
2022-09-22T07:45:14.747Z,12.2
2022-09-22T07:46:18.940Z,12.4
2022-09-22T07:47:23.307Z,12.3
2022-09-22T07:48:32.591Z,12.4
2022-09-22T07:49:36.708Z,12.3
2022-09-22T07:50:44.431Z,12.3
2022-09-22T07:51:48.902Z,12.4
2022-09-22T07:56:36.967Z,12.6
2022-09-22T07:57:51.139Z,12.6
2022-09-22T07:58:58.258Z,12.6
2022-09-22T08:00:06.014Z,12.3
2022-09-22T08:01:15.825Z,12.2
2022-09-22T08:05:41.587Z,12.1
2022-09-22T08:06:45.951Z,12.3
2022-09-22T08:10:12.302Z,12.4
2022-09-22T08:11:16.498Z,12.5
2022-09-22T08:15:11.126Z,12.5
2022-09-22T08:19:54.119Z,12
2022-09-22T08:22:54.035Z,12.2
2022-09-22T08:24:00.859Z,12.4
2022-09-22T08:25:05.435Z,12.4
2022-09-22T08:26:09.754Z,12.4
2022-09-22T08:27:14.264Z,12.5
2022-09-22T08:28:20.142Z,12.5
2022-09-22T08:29:34.227Z,12.6
2022-09-22T08:30:38.499Z,12.6
2022-09-22T08:33:52.124Z,12.8
2022-09-22T08:34:59.454Z,13
2022-09-22T08:36:05.207Z,13
2022-09-22T08:37:09.212Z,13.1
2022-09-22T08:38:13.315Z,13.1
2022-09-22T08:39:18.498Z,12.9
2022-09-22T08:41:48.204Z,13.2
2022-09-22T08:44:47.102Z,13.4
2022-09-22T08:46:01.372Z,13.5
2022-09-22T08:47:07.426Z,13.1
2022-09-22T08:48:14.103Z,13
2022-09-22T08:49:23.230Z,13
2022-09-22T08:55:03.594Z,13.1
2022-09-22T08:56:07.755Z,13
2022-09-22T08:59:06.535Z,12.8
2022-09-22T09:02:12.528Z,12.8
2022-09-22T09:03:21.515Z,12.9
2022-09-22T09:04:35.646Z,12.9
2022-09-22T09:05:44.817Z,12.9
2022-09-22T09:06:54.419Z,12.9
2022-09-22T09:08:08.807Z,13
2022-09-22T09:09:23.022Z,13.2
2022-09-22T09:10:29.917Z,13.3
2022-09-22T09:11:38.984Z,13.3
2022-09-22T09:12:53.282Z,13.4
2022-09-22T09:14:08.042Z,13.5
2022-09-22T09:15:22.274Z,13.7
2022-09-22T09:16:37.263Z,13.7
2022-09-22T09:17:46.398Z,14
2022-09-22T09:18:50.455Z,13.5
2022-09-22T09:19:59.583Z,13.2
2022-09-22T09:21:03.638Z,13.4
2022-09-22T09:22:08.554Z,13.5
2022-09-22T09:23:15.463Z,13.3
2022-09-22T09:25:31.516Z,13.6
2022-09-22T09:26:38.570Z,13.2
2022-09-22T09:27:43.662Z,13.5
2022-09-22T09:28:47.635Z,13.5
2022-09-22T09:29:51.799Z,13.5
2022-09-22T09:31:06.201Z,13.4
2022-09-22T09:32:20.466Z,13.6
2022-09-22T09:33:34.611Z,13.5
2022-09-22T09:34:44.947Z,13.4
2022-09-22T09:35:49.170Z,13.2
2022-09-22T09:36:54.025Z,13
2022-09-22T09:38:03.735Z,13.2
2022-09-22T09:39:07.818Z,12.9
2022-09-22T09:40:18.385Z,13.2
2022-09-22T09:41:23.230Z,13.4
2022-09-22T09:42:30.266Z,13.5
2022-09-22T09:43:34.371Z,13.7
2022-09-22T09:44:38.422Z,13.4
2022-09-22T09:45:43.466Z,13.6
2022-09-22T09:46:52.633Z,13.5
2022-09-22T09:48:06.922Z,13.6
2022-09-22T09:49:16.170Z,13.5
2022-09-22T09:50:20.626Z,13.7
2022-09-22T09:51:24.718Z,13.8
2022-09-22T09:52:29.922Z,13.8
2022-09-22T09:53:40.785Z,13.7
2022-09-22T09:54:44.861Z,13.9
2022-09-22T09:55:49.870Z,14.1
2022-09-22T09:56:54.019Z,14.2
2022-09-22T09:58:05.973Z,14.3
2022-09-22T09:59:13.066Z,14
2022-09-22T10:00:23.077Z,14.1
2022-09-22T10:01:32.417Z,13.9
2022-09-22T10:02:38.189Z,14.3
2022-09-22T10:03:47.271Z,14.4
2022-09-22T10:04:51.357Z,14.1
2022-09-22T10:06:00.482Z,14.4
2022-09-22T10:07:08.413Z,14.3
2022-09-22T10:08:15.432Z,14.2
2022-09-22T10:09:20.486Z,13.8
2022-09-22T10:10:28.533Z,14
2022-09-22T10:11:33.625Z,13.8
2022-09-22T10:12:37.705Z,13.7
2022-09-22T10:13:42.685Z,13.8
2022-09-22T10:14:47.713Z,13.8
2022-09-22T10:15:57.258Z,14
2022-09-22T10:17:06.830Z,14.2
2022-09-22T10:18:11.875Z,14
2022-09-22T10:19:26.109Z,14.2
2022-09-22T10:20:30.194Z,14
2022-09-22T10:21:34.461Z,14.2
2022-09-22T10:22:39.671Z,14.2
2022-09-22T10:23:42.678Z,14.1
2022-09-22T10:24:51.484Z,14.2
2022-09-22T10:25:58.679Z,13.9
2022-09-22T10:27:15.362Z,14.2
2022-09-22T10:28:23.458Z,14.4
2022-09-22T10:29:27.954Z,14.6
2022-09-22T10:34:07.737Z,14.2
2022-09-22T10:35:22.097Z,14
2022-09-22T10:36:29.654Z,13.9
2022-09-22T10:39:13.482Z,13.9
2022-09-22T10:40:17.937Z,14
2022-09-22T10:41:22.502Z,13.9
2022-09-22T10:42:29.846Z,13.7
2022-09-22T10:43:37.223Z,13.9
2022-09-22T10:44:48.744Z,13.8
2022-09-22T10:45:50.794Z,13.5
2022-09-22T10:47:04.413Z,13.6
2022-09-22T10:49:28.221Z,13.4
2022-09-22T10:50:40.817Z,13.6
2022-09-22T10:51:50.154Z,13.7
2022-09-22T10:52:59.470Z,13.9
2022-09-22T10:54:03.941Z,13.9
2022-09-22T10:55:08.169Z,13.8
2022-09-22T10:56:20.161Z,14.1
2022-09-22T10:57:29.550Z,14.1
2022-09-22T10:58:33.995Z,14.2
2022-09-22T10:59:43.362Z,14
2022-09-22T11:00:47.965Z,14.1
2022-09-22T11:01:52.245Z,14
2022-09-22T11:03:01.669Z,14.1
2022-09-22T11:04:11.289Z,14.1
2022-09-22T11:05:20.430Z,14.2
2022-09-22T11:06:35.989Z,14.1
2022-09-22T11:07:53.149Z,13.9
2022-09-22T11:09:07.821Z,14.1
2022-09-22T11:10:22.281Z,14.2
2022-09-22T11:11:39.723Z,14.3
2022-09-22T11:12:58.569Z,14.2
2022-09-22T11:14:12.972Z,14.2
2022-09-22T11:15:27.575Z,14.1
2022-09-22T11:16:39.829Z,14.3
2022-09-22T11:17:45.319Z,14.4
2022-09-22T11:18:55.917Z,14.6
2022-09-22T11:20:08.017Z,14.7
2022-09-22T11:21:17.428Z,14.5
2022-09-22T11:22:29.945Z,14.5
2022-09-22T11:23:39.317Z,14.3
2022-09-22T11:24:51.245Z,14.3
2022-09-22T11:26:02.010Z,13.7
2022-09-22T11:27:14.374Z,14.1
2022-09-22T11:28:29.045Z,14.2
2022-09-22T11:29:46.314Z,14.4
2022-09-22T11:30:58.495Z,14.2
2022-09-22T11:32:02.913Z,14.1
2022-09-22T11:33:19.273Z,14.5
2022-09-22T11:34:31.701Z,14.6
2022-09-22T11:35:46.158Z,14.6
2022-09-22T11:36:51.711Z,14.7
2022-09-22T11:38:02.790Z,14.4
2022-09-22T11:39:12.158Z,14.5
2022-09-22T11:40:21.632Z,14.9
2022-09-22T11:41:34.745Z,15.1
2022-09-22T11:42:41.570Z,14.9
2022-09-22T11:43:59.909Z,14.5
2022-09-22T11:45:11.721Z,14.8
2022-09-22T11:46:26.298Z,14.6
2022-09-22T11:47:38.877Z,14.4
2022-09-22T11:48:53.101Z,14.7
2022-09-22T11:50:07.018Z,14.7
2022-09-22T11:51:21.466Z,14.9
2022-09-22T11:52:31.685Z,15
2022-09-22T11:53:46.230Z,15.1
2022-09-22T11:54:53.570Z,15.2
2022-09-22T11:56:00.749Z,15.1
2022-09-22T11:57:10.251Z,14.6
2022-09-22T11:58:15.913Z,14.7
2022-09-22T11:59:20.654Z,14.9
2022-09-22T12:00:30.537Z,15.1
2022-09-22T12:01:34.722Z,15.1
2022-09-22T12:02:42.511Z,14.9
2022-09-22T12:03:52.985Z,14.9
2022-09-22T12:05:00.134Z,15.1
2022-09-22T12:06:09.438Z,15.1
2022-09-22T12:07:18.900Z,14.6
2022-09-22T12:08:28.261Z,14.4
2022-09-22T12:09:37.014Z,14.8
2022-09-22T12:12:36.299Z,14.8
2022-09-22T12:13:40.537Z,14.7
2022-09-22T12:14:45.421Z,14.7
2022-09-22T12:15:54.342Z,14.7
2022-09-22T12:17:03.705Z,15
2022-09-22T12:18:11.244Z,15
2022-09-22T12:19:15.347Z,15.1
2022-09-22T12:20:29.016Z,14.9
2022-09-22T12:21:38.441Z,14.6
2022-09-22T12:22:50.665Z,14.8
2022-09-22T12:24:00.253Z,14.8
2022-09-22T12:25:04.652Z,14.8
2022-09-22T12:26:14.229Z,14.9
2022-09-22T12:27:26.561Z,14.9
2022-09-22T12:28:31.065Z,14.8
2022-09-22T12:29:35.774Z,14.8
2022-09-22T12:30:40.465Z,14.4
2022-09-22T12:31:52.965Z,14.4
2022-09-22T12:32:57.221Z,14.5
2022-09-22T12:34:01.589Z,14.5
2022-09-22T12:35:05.893Z,14.7
2022-09-22T12:36:17.786Z,14.8
2022-09-22T12:37:32.164Z,14.7
2022-09-22T12:38:39.073Z,14.8
2022-09-22T12:39:43.420Z,14.8
2022-09-22T12:40:47.861Z,15
2022-09-22T12:41:52.301Z,15
2022-09-22T12:43:06.892Z,15
2022-09-22T12:44:14.142Z,15.1
2022-09-22T12:45:21.449Z,14.9
2022-09-22T12:46:34.333Z,14.9
2022-09-22T12:47:39.969Z,14.7
2022-09-22T12:48:44.229Z,14.8
2022-09-22T12:49:48.677Z,14.7
2022-09-22T12:50:59.061Z,14.5
2022-09-22T12:52:15.653Z,14.6
2022-09-22T12:53:27.882Z,14.8
2022-09-22T12:54:32.237Z,14.7
2022-09-22T12:55:37.426Z,14.8
2022-09-22T12:56:42.745Z,14.8
2022-09-22T12:57:47.044Z,14.8
2022-09-22T12:58:51.565Z,14.8
2022-09-22T12:59:55.897Z,14.7
2022-09-22T13:01:10.311Z,14.7
2022-09-22T13:02:28.269Z,14.8
2022-09-22T13:03:32.816Z,15
2022-09-22T13:04:37.195Z,14.8
2022-09-22T13:05:45.705Z,14.8
2022-09-22T13:06:45.978Z,14.8
2022-09-22T13:07:50.302Z,14.8
2022-09-22T13:08:54.496Z,14.5
2022-09-22T13:11:48.153Z,15
2022-09-22T13:13:02.646Z,15
2022-09-22T13:15:56.353Z,15.1
2022-09-22T13:17:05.849Z,15
2022-09-22T13:18:20.156Z,14.9
2022-09-22T13:24:08.084Z,15
2022-09-22T13:28:32.532Z,14.8
2022-09-22T13:31:27.109Z,15.1
2022-09-22T13:32:36.562Z,15.1
2022-09-22T13:33:41.532Z,14.9
2022-09-22T13:34:47.649Z,14.8
2022-09-22T13:35:51.958Z,14.8
2022-09-22T13:37:00.716Z,14.8
2022-09-22T13:38:05.767Z,14.9
2022-09-22T13:39:10.292Z,14.8
2022-09-22T13:40:14.756Z,14.9
2022-09-22T13:41:18.991Z,14.7
2022-09-22T13:42:26.428Z,14.9
2022-09-22T13:43:31.128Z,15
2022-09-22T13:44:35.497Z,14.8
2022-09-22T13:45:40.028Z,14.8
2022-09-22T13:46:44.711Z,14.9
2022-09-22T13:47:50.064Z,14.8
2022-09-22T13:48:54.645Z,14.9
2022-09-22T13:49:58.933Z,14.8
2022-09-22T13:51:06.388Z,14.7
2022-09-22T13:52:12.544Z,14.8
2022-09-22T13:53:17.529Z,14.9
2022-09-22T13:54:23.328Z,14.9
2022-09-22T13:56:55.595Z,14.8
2022-09-22T13:58:40.824Z,14.6
2022-09-22T13:59:45.162Z,14.7
2022-09-22T14:01:11.867Z,14.5
2022-09-22T14:01:57.042Z,14.4
2022-09-22T14:03:02.407Z,14.5
2022-09-22T14:04:06.640Z,14.5
2022-09-22T14:05:14.283Z,14.4
2022-09-22T14:06:19.438Z,14.2
2022-09-22T14:07:23.580Z,14.2
2022-09-22T14:08:27.840Z,14.3
2022-09-22T14:09:32.481Z,14.1
2022-09-22T14:10:36.824Z,14
2022-09-22T14:11:41.396Z,14.1
2022-09-22T14:12:45.744Z,14.1
2022-09-22T14:13:50.536Z,13.9
2022-09-22T14:14:54.829Z,14
2022-09-22T14:15:59.236Z,14
2022-09-22T14:17:09.810Z,13.9
2022-09-22T14:18:17.336Z,13.9
2022-09-22T14:19:24.580Z,13.8
2022-09-22T14:20:33.928Z,13.9
2022-09-22T14:21:41.360Z,13.9
2022-09-22T14:22:45.864Z,13.8
2022-09-22T14:23:50.265Z,13.9
2022-09-22T14:24:54.556Z,14
2022-09-22T14:25:59.080Z,14.1
2022-09-22T14:27:04.369Z,13.7
2022-09-22T14:28:07.966Z,13.9
2022-09-22T14:30:21.213Z,13.9
2022-09-22T14:31:25.787Z,13.8
2022-09-22T14:32:30.119Z,13.7
2022-09-22T14:33:37.541Z,13.9
2022-09-22T14:34:42.161Z,14
2022-09-22T14:35:46.477Z,14.1
2022-09-22T14:36:51.024Z,14.1
2022-09-22T14:37:58.380Z,14.1
2022-09-22T14:39:09.270Z,14.2
2022-09-22T14:40:04.135Z,14.1
2022-09-22T14:41:08.588Z,14.1
2022-09-22T14:42:17.865Z,14.1
2022-09-22T14:43:22.232Z,14.1
2022-09-22T14:44:26.666Z,14.1
2022-09-22T14:45:41.485Z,14
2022-09-22T14:46:56.144Z,14.1
2022-09-22T14:48:01.117Z,14.1
2022-09-22T14:49:11.248Z,13.9
2022-09-22T14:50:26.088Z,14
2022-09-22T14:51:34.077Z,14
2022-09-22T14:52:34.972Z,14
2022-09-22T14:53:46.976Z,14.1
2022-09-22T14:54:53.958Z,14.1
2022-09-22T14:55:59.647Z,14.1
2022-09-22T14:57:07.548Z,14.1
2022-09-22T14:58:12.156Z,14.1
2022-09-22T14:59:21.920Z,14.1
2022-09-22T15:00:31.469Z,14.2
2022-09-22T15:01:41.660Z,13.9
2022-09-22T15:02:51.424Z,13.8
2022-09-22T15:03:56.524Z,13.7
2022-09-22T15:05:06.760Z,13.5
2022-09-22T15:06:11.380Z,13.6
2022-09-22T15:07:15.814Z,13.7
2022-09-22T15:08:25.250Z,13.6
2022-09-22T15:09:30.341Z,13.7
2022-09-22T15:10:39.046Z,13.7
2022-09-22T15:11:43.563Z,13.4
2022-09-22T15:12:49.681Z,13.5
2022-09-22T15:13:53.536Z,13.6
2022-09-22T15:14:58.111Z,13.5
2022-09-22T15:16:02.953Z,13.4
2022-09-22T15:17:07.603Z,13.4
2022-09-22T15:18:30.478Z,13.4
2022-09-22T15:19:31.476Z,13.4
2022-09-22T15:20:36.173Z,13.4
2022-09-22T15:21:45.944Z,13.5
2022-09-22T15:22:50.462Z,13.5
2022-09-22T15:23:54.809Z,13.6
2022-09-22T15:24:59.871Z,13.6
2022-09-22T15:26:04.534Z,13.5
2022-09-22T15:27:16.806Z,13.4
2022-09-22T15:28:21.131Z,13.2
2022-09-22T15:29:25.859Z,13.1
2022-09-22T15:30:30.155Z,13.2
2022-09-22T15:31:34.625Z,13.2
2022-09-22T15:32:40.820Z,13.2
2022-09-22T15:33:43.288Z,13.2
2022-09-22T15:34:47.748Z,13.1
2022-09-22T15:35:52.085Z,13.3
2022-09-22T15:37:02.181Z,13.4
2022-09-22T15:38:06.494Z,13.3
2022-09-22T15:39:15.906Z,13.2
2022-09-22T15:40:20.623Z,13.2
2022-09-22T15:41:25.199Z,13.3
2022-09-22T15:42:30.892Z,13.3
2022-09-22T15:43:35.296Z,13.1
2022-09-22T15:44:39.703Z,13.1
2022-09-22T15:45:44.899Z,12.9
2022-09-22T15:46:54.278Z,12.9
2022-09-22T15:47:58.721Z,12.9
2022-09-22T15:49:03.422Z,12.9
2022-09-22T15:50:15.596Z,12.9
2022-09-22T15:51:25.166Z,13.1
2022-09-22T15:52:29.486Z,13
2022-09-22T15:53:33.731Z,13.1
2022-09-22T15:54:38.063Z,13.2
2022-09-22T15:55:42.423Z,13.1
2022-09-22T15:56:46.659Z,13.2
2022-09-22T15:57:51.205Z,13.3
2022-09-22T15:58:56.516Z,13.2
2022-09-22T16:00:00.961Z,13.3
2022-09-22T16:01:05.613Z,13.2
2022-09-22T16:02:10.265Z,13.3
2022-09-22T16:03:14.944Z,13.4
2022-09-22T16:04:22.537Z,13.4
2022-09-22T16:05:28.253Z,13.4
2022-09-22T16:06:32.742Z,13.4
2022-09-22T16:07:37.018Z,13.4
2022-09-22T16:08:45.806Z,13.3
2022-09-22T16:09:50.141Z,13.3
2022-09-22T16:10:54.687Z,13.3
2022-09-22T16:11:59.248Z,13.3
2022-09-22T16:13:03.729Z,13.2
2022-09-22T16:14:08.546Z,13.1
2022-09-22T16:15:13.676Z,13.1
2022-09-22T16:16:18.047Z,13.1
2022-09-22T16:17:23.946Z,13.1
2022-09-22T16:18:28.361Z,13.1
2022-09-22T16:19:35.582Z,13.1
2022-09-22T16:20:39.874Z,13.1
2022-09-22T16:21:44.490Z,13
2022-09-22T16:22:51.493Z,12.9
2022-09-22T16:23:56.004Z,12.9
2022-09-22T16:25:00.273Z,12.9
2022-09-22T16:26:04.898Z,12.9
2022-09-22T16:27:09.201Z,12.9
2022-09-22T16:28:13.842Z,12.8
2022-09-22T16:29:18.644Z,12.8
2022-09-22T16:30:25.877Z,12.8
2022-09-22T16:31:27.550Z,12.8
2022-09-22T16:32:32.137Z,12.8
2022-09-22T16:33:36.614Z,12.7
2022-09-22T16:34:41.131Z,12.7
2022-09-22T16:35:45.643Z,12.7
2022-09-22T16:36:50.490Z,12.6
2022-09-22T16:37:55.086Z,12.6
2022-09-22T16:39:00.898Z,12.6
2022-09-22T16:40:05.470Z,12.6
2022-09-22T16:41:10.270Z,12.6
2022-09-22T16:42:23.448Z,12.6
2022-09-22T16:43:26.644Z,12.6
2022-09-22T16:44:32.205Z,12.6
2022-09-22T16:45:36.946Z,12.5
2022-09-22T16:46:46.296Z,12.6
2022-09-22T16:47:50.634Z,12.6
2022-09-22T16:48:55.582Z,12.6
2022-09-22T16:49:59.946Z,12.6
2022-09-22T16:51:04.364Z,12.7
2022-09-22T16:53:12.254Z,12.7
2022-09-22T16:54:17.134Z,12.8
2022-09-22T16:55:21.522Z,12.8
2022-09-22T16:56:26.114Z,12.8
2022-09-22T16:57:31.330Z,12.9
2022-09-22T16:58:36.283Z,12.9
2022-09-22T16:59:56.294Z,12.9
2022-09-22T17:01:02.758Z,12.9
2022-09-22T17:02:07.638Z,12.9
2022-09-22T17:03:12.898Z,12.9
2022-09-22T17:04:17.641Z,12.9
2022-09-22T17:05:22.170Z,12.9
2022-09-22T17:06:27.142Z,12.9
2022-09-22T17:07:31.453Z,12.8
2022-09-22T17:08:35.717Z,12.8
2022-09-22T17:09:40.034Z,12.8
2022-09-22T17:10:44.725Z,12.8
2022-09-22T17:11:49.412Z,12.7
2022-09-22T17:12:53.810Z,12.7
2022-09-22T17:13:58.466Z,12.1
2022-09-22T17:15:02.926Z,12.3
2022-09-22T17:16:11.430Z,12.4
2022-09-22T17:17:26.419Z,12.4
2022-09-22T17:18:34.546Z,12.4
2022-09-22T17:19:41.601Z,12.4
2022-09-22T17:20:46.697Z,12.4
2022-09-22T17:21:50.964Z,12.4
2022-09-22T17:22:58.981Z,12.4
2022-09-22T17:24:03.446Z,12.4
2022-09-22T17:25:08.210Z,12.3
2022-09-22T17:29:25.571Z,12.3
2022-09-22T17:30:37.484Z,12.3
2022-09-22T17:31:42.354Z,12.3
2022-09-22T17:32:46.676Z,12.3
2022-09-22T17:33:52.386Z,12.3
2022-09-22T17:34:55.296Z,12.3
2022-09-22T17:35:59.840Z,12.3
2022-09-22T17:37:04.311Z,12.4
2022-09-22T17:38:11.719Z,12.4
2022-09-22T17:39:31.880Z,12.5
2022-09-22T17:40:36.294Z,12.5
2022-09-22T17:41:44.248Z,12.5
2022-09-22T17:42:48.322Z,12.5
2022-09-22T17:43:52.687Z,12.6
2022-09-22T17:44:57.091Z,12.6